WetterOnline ( https://www.wetteronline.ch )

Wetter aktuell Schwerin

Aktuelles Wetter: Schwerin (68m)

6-stündlich | Neueste Meldungen
Ortszeit Temperatur Wetter
So, 25.08. 8:00 17.7° C bedeckt
So, 25.08. 2:00 18.4° C wolkenlos
Sa, 24.08. 20:00 25.7° C wolkenlos
Sa, 24.08. 14:00 27.1° C fast wolkenlos
Sa, 24.08. 8:00 16.8° C fast wolkenlos
Sa, 24.08. 2:00 14.6° C wolkig
Fr, 23.08. 20:00 22.2° C wolkig
Fr, 23.08. 14:00 26.0° C leicht bewölkt
Ortszeit Temperatur Wetter
So, 25.08. 9:00 19.0° C bedeckt
So, 25.08. 8:50 19.0° C bedeckt
So, 25.08. 8:40 18.6° C bedeckt
So, 25.08. 8:30 18.1° C bedeckt
So, 25.08. 8:20 18.1° C bedeckt
So, 25.08. 8:10 18.0° C bedeckt
So, 25.08. 8:00 17.7° C bedeckt
So, 25.08. 7:30 17.5° C bedeckt
So, 25.08. 7:00 16.6° C bewölkt
So, 25.08. 6:30 16.3° C fast wolkenlos
So, 25.08. 6:00 16.2° C wolkenlos
Ortszeit Relative Feuchte Sichtweite
So, 25.08. 8:00 76% 40 km
So, 25.08. 2:00 70% 50 km
Sa, 24.08. 20:00 40% 60 km
Sa, 24.08. 14:00 36% 45 km
Sa, 24.08. 8:00 72% 40 km
Sa, 24.08. 2:00 88% 30 km
Fr, 23.08. 20:00 53% 45 km
Fr, 23.08. 14:00 40% 50 km
Ortszeit Relative Feuchte Sichtweite
So, 25.08. 9:00 70% 45 km
So, 25.08. 8:50 70% -
So, 25.08. 8:40 71% -
So, 25.08. 8:30 74% 50 km
So, 25.08. 8:20 74% -
So, 25.08. 8:10 74% -
So, 25.08. 8:00 76% 40 km
So, 25.08. 7:30 77% 45 km
So, 25.08. 7:00 81% 35 km
So, 25.08. 6:30 80% 40 km
So, 25.08. 6:00 81% 40 km
Ortszeit Niederschlagsmenge Niederschlagsart
So, 25.08. 8:00 0.0 l/m2 in 12 Std. -
So, 25.08. 2:00 0.0 l/m2 in 6 Std. -
Sa, 24.08. 20:00 0.0 l/m2 in 12 Std. -
Sa, 24.08. 14:00 0.0 l/m2 in 6 Std. -
Sa, 24.08. 8:00 0.0 l/m2 in 12 Std. -
Sa, 24.08. 2:00 0.0 l/m2 in 6 Std. -
Fr, 23.08. 20:00 0.0 l/m2 in 12 Std. -
Fr, 23.08. 14:00 0.0 l/m2 in 6 Std. -
Ortszeit Niederschlagsmenge Niederschlagsart
So, 25.08. 9:00 0.0 l/m2 in 1 Std. -
So, 25.08. 8:50 keine Meldung -
So, 25.08. 8:40 keine Meldung -
So, 25.08. 8:30 0.0 l/m2 in 1 Std. -
So, 25.08. 8:20 keine Meldung -
So, 25.08. 8:10 keine Meldung -
So, 25.08. 8:00 0.0 l/m2 in 1 Std. -
So, 25.08. 7:30 0.0 l/m2 in 1 Std. -
So, 25.08. 7:00 0.0 l/m2 in 1 Std. -
So, 25.08. 6:30 0.0 l/m2 in 1 Std. -
So, 25.08. 6:00 0.0 l/m2 in 1 Std. -
Ortszeit Stärke Spitze Richtung
km/h Bft. km/h Grad Sektor
So, 25.08. 8:00 7 2 18 70° O
So, 25.08. 2:00 7 2 22 80° O
Sa, 24.08. 20:00 7 2 25 100° O
Sa, 24.08. 14:00 14 3 25 110° O
Sa, 24.08. 8:00 9 2 15 70° O
Sa, 24.08. 2:00 6 1 13 50° NO
Fr, 23.08. 20:00 9 2 26 40° NO
Fr, 23.08. 14:00 11 2 22 240° SW
Ortszeit Stärke Spitze Richtung
km/h Bft. km/h Grad Sektor
So, 25.08. 9:00 7 2 14 60° NO
So, 25.08. 8:50 7 2 - 60° NO
So, 25.08. 8:40 7 2 - 60° NO
So, 25.08. 8:30 7 2 14 60° NO
So, 25.08. 8:20 7 2 - 60° NO
So, 25.08. 8:10 7 2 - 70° O
So, 25.08. 8:00 7 2 14 70° O
So, 25.08. 7:30 11 2 14 60° NO
So, 25.08. 7:00 9 2 15 70° O
So, 25.08. 6:30 7 2 11 80° O
So, 25.08. 6:00 9 2 15 70° O
Ortszeit Untergrenze Bedeckung Gattung
total tief tief mittel hoch
So, 25.08. 8:00 1500 m 8/8 8/8 - - -
So, 25.08. 2:00 - 0/8 0/8 - - -
Sa, 24.08. 20:00 - 0/8 0/8 - - -
Sa, 24.08. 14:00 9000 m 2/8 0/8 - - -
Sa, 24.08. 8:00 10500 m 2/8 0/8 - - -
Sa, 24.08. 2:00 9000 m 8/8 0/8 - - -
Fr, 23.08. 20:00 9000 m 8/8 0/8 - - -
Fr, 23.08. 14:00 9000 m 8/8 0/8 - - -
Ortszeit Bedeckungsgrad in Achtel und Wolkenuntergrenze
So, 25.08. 9:00 8(1800m)
So, 25.08. 8:50 8(1800m)
So, 25.08. 8:40 8(1800m)
So, 25.08. 8:30 8(1800m)
So, 25.08. 8:20 8(1800m)
So, 25.08. 8:10 8(1500m)
So, 25.08. 8:00 8(1500m)
So, 25.08. 7:30 8(1500m)
So, 25.08. 7:00 7(1500m)
So, 25.08. 6:30 4(1800m)
So, 25.08. 6:00 keine Wolken
Ortszeit Luftdruck NN (hPa) Tendenz (hPa in 3 Std.)
So, 25.08. 8:00 1022 - 0,2
So, 25.08. 2:00 1023 0,0
Sa, 24.08. 20:00 1022 - 0,9
Sa, 24.08. 14:00 1024 - 1,4
Sa, 24.08. 8:00 1026 - 0,1
Sa, 24.08. 2:00 1026 - 0,1
Fr, 23.08. 20:00 1025 - 0,2
Fr, 23.08. 14:00 1026 - 0,6
Ortszeit Luftdruck NN (hPa) Tendenz (hPa in 3 Std.)
So, 25.08. 9:00 1022 0,0
So, 25.08. 8:50 1022 keine Meldung
So, 25.08. 8:40 1022 keine Meldung
So, 25.08. 8:30 1022 - 0,2
So, 25.08. 8:20 1022 keine Meldung
So, 25.08. 8:10 1022 keine Meldung
So, 25.08. 8:00 1022 - 0,2
So, 25.08. 7:30 1022 - 0,3
So, 25.08. 7:00 1022 - 0,4
So, 25.08. 6:30 1022 - 0,5
So, 25.08. 6:00 1022 - 0,6
Ortszeit Schneehöhe (cm)
So, 25.08. 8:00 -
So, 25.08. 2:00 -
Sa, 24.08. 20:00 -
Sa, 24.08. 14:00 -
Sa, 24.08. 8:00 -
Sa, 24.08. 2:00 -
Fr, 23.08. 20:00 -
Fr, 23.08. 14:00 -
Ortszeit Schneehöhe (cm)
So, 25.08. 9:00 -
So, 25.08. 8:50 -
So, 25.08. 8:40 -
So, 25.08. 8:30 -
So, 25.08. 8:20 -
So, 25.08. 8:10 -
So, 25.08. 8:00 -
So, 25.08. 7:30 -
So, 25.08. 7:00 -
So, 25.08. 6:30 -
So, 25.08. 6:00 -
Link zu dieser Seite / Seite empfehlen

Das Wetter in ...